sensor_id;sensor_type;location;lat;lon;timestamp;pressure;altitude;pressure_sealevel;temperature;humidity
50368;BME280;36281;34.132;-118.018;2023-09-18T00:01:33;99941.31;;;23.64;73.00
50368;BME280;36281;34.132;-118.018;2023-09-18T00:04:03;99936.72;;;23.64;73.66
50368;BME280;36281;34.132;-118.018;2023-09-18T00:06:33;99939.69;;;23.63;73.24
50368;BME280;36281;34.132;-118.018;2023-09-18T00:09:02;99939.16;;;23.61;74.02
50368;BME280;36281;34.132;-118.018;2023-09-18T00:11:31;99942.16;;;23.59;73.48
50368;BME280;36281;34.132;-118.018;2023-09-18T00:14:00;99931.66;;;23.58;72.97
50368;BME280;36281;34.132;-118.018;2023-09-18T00:16:31;99936.84;;;23.54;72.62
50368;BME280;36281;34.132;-118.018;2023-09-18T00:19:21;99937.94;;;23.53;73.24
50368;BME280;36281;34.132;-118.018;2023-09-18T00:21:51;99935.25;;;23.53;73.15
50368;BME280;36281;34.132;-118.018;2023-09-18T00:24:21;99928.25;;;23.52;73.29
50368;BME280;36281;34.132;-118.018;2023-09-18T00:26:51;99943.44;;;23.48;73.95
50368;BME280;36281;34.132;-118.018;2023-09-18T00:29:21;99949.94;;;23.47;73.37
50368;BME280;36281;34.132;-118.018;2023-09-18T00:31:52;99945.13;;;23.44;72.49
50368;BME280;36281;34.132;-118.018;2023-09-18T00:34:21;99953.72;;;23.46;72.46
50368;BME280;36281;34.132;-118.018;2023-09-18T00:36:50;99951.84;;;23.46;73.83
50368;BME280;36281;34.132;-118.018;2023-09-18T00:39:19;99952.13;;;23.45;74.60
50368;BME280;36281;34.132;-118.018;2023-09-18T00:41:49;99954.03;;;23.44;74.80
50368;BME280;36281;34.132;-118.018;2023-09-18T00:44:22;99950.00;;;23.42;74.85
50368;BME280;36281;34.132;-118.018;2023-09-18T00:46:53;99943.31;;;23.39;73.98
50368;BME280;36281;34.132;-118.018;2023-09-18T00:49:24;99948.22;;;23.37;72.85
50368;BME280;36281;34.132;-118.018;2023-09-18T00:51:53;99941.00;;;23.33;73.47
50368;BME280;36281;34.132;-118.018;2023-09-18T00:54:23;99944.75;;;23.32;73.81
50368;BME280;36281;34.132;-118.018;2023-09-18T00:56:52;99950.78;;;23.29;74.86
50368;BME280;36281;34.132;-118.018;2023-09-18T00:59:23;99952.75;;;23.23;75.01
50368;BME280;36281;34.132;-118.018;2023-09-18T01:01:54;99944.34;;;23.25;75.41
50368;BME280;36281;34.132;-118.018;2023-09-18T01:04:25;99941.94;;;23.23;75.52
50368;BME280;36281;34.132;-118.018;2023-09-18T01:06:58;99942.22;;;23.21;75.61
50368;BME280;36281;34.132;-118.018;2023-09-18T01:09:30;99946.63;;;23.17;75.50
50368;BME280;36281;34.132;-118.018;2023-09-18T01:12:03;99939.91;;;23.15;75.56
50368;BME280;36281;34.132;-118.018;2023-09-18T01:14:42;99942.91;;;23.13;75.54
50368;BME280;36281;34.132;-118.018;2023-09-18T01:17:16;99946.19;;;23.10;75.39
50368;BME280;36281;34.132;-118.018;2023-09-18T01:19:46;99946.97;;;23.11;75.20
50368;BME280;36281;34.132;-118.018;2023-09-18T01:22:17;99946.19;;;23.10;76.43
50368;BME280;36281;34.132;-118.018;2023-09-18T01:24:48;99953.25;;;23.06;76.75
50368;BME280;36281;34.132;-118.018;2023-09-18T01:27:18;99950.06;;;23.04;76.20
50368;BME280;36281;34.132;-118.018;2023-09-18T01:29:48;99951.16;;;23.03;75.01
50368;BME280;36281;34.132;-118.018;2023-09-18T01:32:17;99958.22;;;22.99;73.74
50368;BME280;36281;34.132;-118.018;2023-09-18T01:34:48;99952.03;;;22.99;72.66
50368;BME280;36281;34.132;-118.018;2023-09-18T01:37:20;99963.19;;;22.92;72.10
50368;BME280;36281;34.132;-118.018;2023-09-18T01:39:52;99968.06;;;22.90;71.84
50368;BME280;36281;34.132;-118.018;2023-09-18T01:42:22;99967.53;;;22.88;72.02
50368;BME280;36281;34.132;-118.018;2023-09-18T01:44:53;99968.91;;;22.85;71.70
50368;BME280;36281;34.132;-118.018;2023-09-18T01:47:22;99967.63;;;22.83;71.90
50368;BME280;36281;34.132;-118.018;2023-09-18T01:49:52;99963.28;;;22.82;72.09
50368;BME280;36281;34.132;-118.018;2023-09-18T01:52:21;99969.47;;;22.82;72.02
50368;BME280;36281;34.132;-118.018;2023-09-18T01:54:52;99965.97;;;22.82;72.51
50368;BME280;36281;34.132;-118.018;2023-09-18T01:57:21;99971.97;;;22.79;72.14
50368;BME280;36281;34.132;-118.018;2023-09-18T01:59:50;99973.09;;;22.78;72.59
50368;BME280;36281;34.132;-118.018;2023-09-18T02:02:19;99966.06;;;22.77;73.42
50368;BME280;36281;34.132;-118.018;2023-09-18T02:05:08;99967.44;;;22.74;72.73
50368;BME280;36281;34.132;-118.018;2023-09-18T02:07:38;99969.69;;;22.67;72.69
50368;BME280;36281;34.132;-118.018;2023-09-18T02:10:09;99969.97;;;22.65;72.38
50368;BME280;36281;34.132;-118.018;2023-09-18T02:12:41;99974.28;;;22.66;71.82
50368;BME280;36281;34.132;-118.018;2023-09-18T02:15:10;99974.06;;;22.63;71.75
50368;BME280;36281;34.132;-118.018;2023-09-18T02:17:39;99968.94;;;22.61;71.81
50368;BME280;36281;34.132;-118.018;2023-09-18T02:20:09;99971.44;;;22.58;71.62
50368;BME280;36281;34.132;-118.018;2023-09-18T02:22:40;99969.00;;;22.56;71.44
50368;BME280;36281;34.132;-118.018;2023-09-18T02:25:10;99969.06;;;22.51;71.46
50368;BME280;36281;34.132;-118.018;2023-09-18T02:27:39;99981.25;;;22.49;71.40
50368;BME280;36281;34.132;-118.018;2023-09-18T02:30:09;99988.03;;;22.46;71.91
50368;BME280;36281;34.132;-118.018;2023-09-18T02:32:38;99989.91;;;22.45;72.32
50368;BME280;36281;34.132;-118.018;2023-09-18T02:35:08;99987.22;;;22.45;72.28
50368;BME280;36281;34.132;-118.018;2023-09-18T02:37:37;99987.22;;;22.45;72.20
50368;BME280;36281;34.132;-118.018;2023-09-18T02:40:07;99992.63;;;22.45;72.52
50368;BME280;36281;34.132;-118.018;2023-09-18T02:42:41;99992.91;;;22.44;72.56
50368;BME280;36281;34.132;-118.018;2023-09-18T02:45:10;99999.47;;;22.38;72.58
50368;BME280;36281;34.132;-118.018;2023-09-18T02:47:39;100003.75;;;22.39;72.63
50368;BME280;36281;34.132;-118.018;2023-09-18T02:50:10;100002.16;;;22.38;72.75
50368;BME280;36281;34.132;-118.018;2023-09-18T02:52:40;100009.72;;;22.36;72.78
50368;BME280;36281;34.132;-118.018;2023-09-18T02:55:09;100010.81;;;22.35;72.74
50368;BME280;36281;34.132;-118.018;2023-09-18T02:57:40;100012.47;;;22.31;72.22
50368;BME280;36281;34.132;-118.018;2023-09-18T03:00:10;100007.38;;;22.29;72.03
50368;BME280;36281;34.132;-118.018;2023-09-18T03:02:39;100018.16;;;22.29;72.16
50368;BME280;36281;34.132;-118.018;2023-09-18T03:05:08;100017.63;;;22.27;72.19
50368;BME280;36281;34.132;-118.018;2023-09-18T03:07:38;100019.53;;;22.27;71.74
50368;BME280;36281;34.132;-118.018;2023-09-18T03:10:08;100020.13;;;22.24;72.14
50368;BME280;36281;34.132;-118.018;2023-09-18T03:12:43;100025.22;;;22.25;72.18
50368;BME280;36281;34.132;-118.018;2023-09-18T03:15:12;100025.50;;;22.24;72.19
50368;BME280;36281;34.132;-118.018;2023-09-18T03:17:41;100035.75;;;22.22;71.82
50368;BME280;36281;34.132;-118.018;2023-09-18T03:20:11;100039.31;;;22.17;72.00
50368;BME280;36281;34.132;-118.018;2023-09-18T03:22:43;100037.72;;;22.16;71.85
50368;BME280;36281;34.132;-118.018;2023-09-18T03:25:18;100035.00;;;22.16;71.88
50368;BME280;36281;34.132;-118.018;2023-09-18T03:27:49;100037.47;;;22.12;71.69
50368;BME280;36281;34.132;-118.018;2023-09-18T03:30:19;100042.84;;;22.12;71.55
50368;BME280;36281;34.132;-118.018;2023-09-18T03:32:48;100042.84;;;22.12;71.78
50368;BME280;36281;34.132;-118.018;2023-09-18T03:35:19;100040.72;;;22.09;71.70
50368;BME280;36281;34.132;-118.018;2023-09-18T03:37:49;100036.97;;;22.05;71.81
50368;BME280;36281;34.132;-118.018;2023-09-18T03:40:18;100035.38;;;22.04;71.51
50368;BME280;36281;34.132;-118.018;2023-09-18T03:42:49;100036.47;;;22.03;71.65
50368;BME280;36281;34.132;-118.018;2023-09-18T03:45:18;100044.56;;;22.03;71.52
50368;BME280;36281;34.132;-118.018;2023-09-18T03:47:48;100042.66;;;22.04;71.77
50368;BME280;36281;34.132;-118.018;2023-09-18T03:50:18;100041.31;;;22.01;72.02
50368;BME280;36281;34.132;-118.018;2023-09-18T03:52:48;100050.50;;;22.00;71.94
50368;BME280;36281;34.132;-118.018;2023-09-18T03:55:17;100050.78;;;21.99;72.09
50368;BME280;36281;34.132;-118.018;2023-09-18T03:57:46;100053.50;;;21.99;72.09
50368;BME280;36281;34.132;-118.018;2023-09-18T04:00:18;100056.44;;;21.97;72.13
50368;BME280;36281;34.132;-118.018;2023-09-18T04:02:47;100057.53;;;21.96;72.39
50368;BME280;36281;34.132;-118.018;2023-09-18T04:05:17;100058.94;;;21.93;72.46
50368;BME280;36281;34.132;-118.018;2023-09-18T04:07:46;100061.09;;;21.91;72.27
50368;BME280;36281;34.132;-118.018;2023-09-18T04:10:15;100058.97;;;21.88;72.55
50368;BME280;36281;34.132;-118.018;2023-09-18T04:12:52;100058.13;;;21.88;72.58
50368;BME280;36281;34.132;-118.018;2023-09-18T04:15:23;100055.97;;;21.90;72.59
50368;BME280;36281;34.132;-118.018;2023-09-18T04:17:52;100064.06;;;21.90;72.67
50368;BME280;36281;34.132;-118.018;2023-09-18T04:20:21;100071.34;;;21.89;72.70
50368;BME280;36281;34.132;-118.018;2023-09-18T04:23:17;100069.22;;;21.86;72.62
50368;BME280;36281;34.132;-118.018;2023-09-18T04:25:47;100062.50;;;21.84;72.55
50368;BME280;36281;34.132;-118.018;2023-09-18T04:28:17;100067.59;;;21.85;72.64
50368;BME280;36281;34.132;-118.018;2023-09-18T04:30:49;100075.19;;;21.83;72.58
50368;BME280;36281;34.132;-118.018;2023-09-18T04:33:18;100065.47;;;21.82;72.42
50368;BME280;36281;34.132;-118.018;2023-09-18T04:35:47;100073.28;;;21.84;72.36
50368;BME280;36281;34.132;-118.018;2023-09-18T04:38:17;100069.25;;;21.81;72.69
50368;BME280;36281;34.132;-118.018;2023-09-18T04:40:47;100065.47;;;21.82;72.54
50368;BME280;36281;34.132;-118.018;2023-09-18T04:43:17;100070.63;;;21.79;72.83
50368;BME280;36281;34.132;-118.018;2023-09-18T04:45:46;100072.25;;;21.80;72.75
50368;BME280;36281;34.132;-118.018;2023-09-18T04:48:16;100074.38;;;21.78;72.62
50368;BME280;36281;34.132;-118.018;2023-09-18T04:50:46;100071.97;;;21.76;72.86
50368;BME280;36281;34.132;-118.018;2023-09-18T04:53:15;100081.97;;;21.76;72.79
50368;BME280;36281;34.132;-118.018;2023-09-18T04:55:45;100072.78;;;21.77;72.43
50368;BME280;36281;34.132;-118.018;2023-09-18T04:58:18;100073.88;;;21.76;72.17
50368;BME280;36281;34.132;-118.018;2023-09-18T05:00:47;100076.84;;;21.74;72.03
50368;BME280;36281;34.132;-118.018;2023-09-18T05:03:23;100074.44;;;21.73;72.14
50368;BME280;36281;34.132;-118.018;2023-09-18T05:05:53;100077.94;;;21.73;71.89
50368;BME280;36281;34.132;-118.018;2023-09-18T05:08:22;100072.81;;;21.72;72.39
50368;BME280;36281;34.132;-118.018;2023-09-18T05:10:51;100076.59;;;21.71;72.17
50368;BME280;36281;34.132;-118.018;2023-09-18T05:13:20;100075.53;;;21.72;72.09
50368;BME280;36281;34.132;-118.018;2023-09-18T05:15:49;100077.41;;;21.71;71.72
50368;BME280;36281;34.132;-118.018;2023-09-18T05:18:18;100082.00;;;21.71;71.76
50368;BME280;36281;34.132;-118.018;2023-09-18T05:20:49;100074.19;;;21.69;72.25
50368;BME280;36281;34.132;-118.018;2023-09-18T05:23:18;100074.72;;;21.71;72.20
50368;BME280;36281;34.132;-118.018;2023-09-18T05:25:47;100080.41;;;21.70;72.25
50368;BME280;36281;34.132;-118.018;2023-09-18T05:28:16;100066.91;;;21.70;72.32
50368;BME280;36281;34.132;-118.018;2023-09-18T05:30:46;100068.53;;;21.71;72.37
50368;BME280;36281;34.132;-118.018;2023-09-18T05:33:15;100065.31;;;21.68;72.23
50368;BME280;36281;34.132;-118.018;2023-09-18T05:35:44;100066.38;;;21.67;72.32
50368;BME280;36281;34.132;-118.018;2023-09-18T05:38:15;100062.06;;;21.66;72.52
50368;BME280;36281;34.132;-118.018;2023-09-18T05:40:46;100072.06;;;21.66;72.69
50368;BME280;36281;34.132;-118.018;2023-09-18T05:43:16;100064.78;;;21.66;72.67
50368;BME280;36281;34.132;-118.018;2023-09-18T05:45:46;100060.47;;;21.65;72.82
50368;BME280;36281;34.132;-118.018;2023-09-18T05:48:18;100065.88;;;21.65;72.65
50368;BME280;36281;34.132;-118.018;2023-09-18T05:50:47;100066.66;;;21.66;72.88
50368;BME280;36281;34.132;-118.018;2023-09-18T05:53:18;100067.47;;;21.66;72.73
50368;BME280;36281;34.132;-118.018;2023-09-18T05:55:48;100061.28;;;21.66;72.72
50368;BME280;36281;34.132;-118.018;2023-09-18T05:58:17;100061.28;;;21.66;73.30
50368;BME280;36281;34.132;-118.018;2023-09-18T06:00:50;100061.56;;;21.64;73.98
50368;BME280;36281;34.132;-118.018;2023-09-18T06:03:19;100066.97;;;21.64;74.59
50368;BME280;36281;34.132;-118.018;2023-09-18T06:05:49;100063.19;;;21.60;75.09
50368;BME280;36281;34.132;-118.018;2023-09-18T06:08:20;100066.72;;;21.56;75.74
50368;BME280;36281;34.132;-118.018;2023-09-18T06:10:49;100060.25;;;21.57;76.24
50368;BME280;36281;34.132;-118.018;2023-09-18T06:13:18;100061.06;;;21.57;76.62
50368;BME280;36281;34.132;-118.018;2023-09-18T06:15:47;100055.16;;;21.55;76.84
50368;BME280;36281;34.132;-118.018;2023-09-18T06:18:16;100062.16;;;21.56;76.78
50368;BME280;36281;34.132;-118.018;2023-09-18T06:20:45;100059.75;;;21.55;77.20
50368;BME280;36281;34.132;-118.018;2023-09-18T06:23:15;100057.84;;;21.55;77.49
50368;BME280;36281;34.132;-118.018;2023-09-18T06:25:45;100059.75;;;21.55;78.16
50368;BME280;36281;34.132;-118.018;2023-09-18T06:28:15;100055.94;;;21.56;78.64
50368;BME280;36281;34.132;-118.018;2023-09-18T06:30:44;100063.22;;;21.55;78.92
50368;BME280;36281;34.132;-118.018;2023-09-18T06:33:13;100065.94;;;21.55;78.87
50368;BME280;36281;34.132;-118.018;2023-09-18T06:35:43;100066.72;;;21.56;79.31
50368;BME280;36281;34.132;-118.018;2023-09-18T06:38:12;100065.94;;;21.55;79.24
50368;BME280;36281;34.132;-118.018;2023-09-18T06:40:41;100068.63;;;21.55;79.84
50368;BME280;36281;34.132;-118.018;2023-09-18T06:43:12;100062.47;;;21.50;79.04
50368;BME280;36281;34.132;-118.018;2023-09-18T06:45:41;100070.28;;;21.46;77.68
50368;BME280;36281;34.132;-118.018;2023-09-18T06:48:09;100070.00;;;21.48;77.72
50368;BME280;36281;34.132;-118.018;2023-09-18T06:50:39;100064.91;;;21.46;77.50
50368;BME280;36281;34.132;-118.018;2023-09-18T06:53:08;100057.63;;;21.47;77.21
50368;BME280;36281;34.132;-118.018;2023-09-18T06:55:38;100062.75;;;21.43;76.85
50368;BME280;36281;34.132;-118.018;2023-09-18T06:58:07;100061.94;;;21.42;76.47
50368;BME280;36281;34.132;-118.018;2023-09-18T07:00:38;100067.34;;;21.42;76.00
50368;BME280;36281;34.132;-118.018;2023-09-18T07:03:07;100064.38;;;21.44;76.59
50368;BME280;36281;34.132;-118.018;2023-09-18T07:05:39;100064.38;;;21.44;77.22
50368;BME280;36281;34.132;-118.018;2023-09-18T07:08:11;100060.34;;;21.41;77.38
50368;BME280;36281;34.132;-118.018;2023-09-18T07:10:41;100060.34;;;21.41;77.21
50368;BME280;36281;34.132;-118.018;2023-09-18T07:13:10;100061.44;;;21.40;77.08
50368;BME280;36281;34.132;-118.018;2023-09-18T07:15:44;100061.72;;;21.39;76.70
50368;BME280;36281;34.132;-118.018;2023-09-18T07:18:13;100067.91;;;21.39;76.74
50368;BME280;36281;34.132;-118.018;2023-09-18T07:20:44;100056.88;;;21.36;76.61
50368;BME280;36281;34.132;-118.018;2023-09-18T07:23:13;100057.41;;;21.38;77.13
50368;BME280;36281;34.132;-118.018;2023-09-18T07:25:42;100053.09;;;21.37;77.76
50368;BME280;36281;34.132;-118.018;2023-09-18T07:28:15;100061.19;;;21.37;77.57
50368;BME280;36281;34.132;-118.018;2023-09-18T07:30:47;100063.06;;;21.36;77.65
50368;BME280;36281;34.132;-118.018;2023-09-18T07:33:16;100056.38;;;21.34;78.13
50368;BME280;36281;34.132;-118.018;2023-09-18T07:35:49;100054.47;;;21.34;78.14
50368;BME280;36281;34.132;-118.018;2023-09-18T07:38:20;100062.28;;;21.36;78.35
50368;BME280;36281;34.132;-118.018;2023-09-18T07:40:49;100063.06;;;21.36;78.59
50368;BME280;36281;34.132;-118.018;2023-09-18T07:43:18;100059.88;;;21.34;78.30
50368;BME280;36281;34.132;-118.018;2023-09-18T07:45:49;100058.25;;;21.33;78.11
50368;BME280;36281;34.132;-118.018;2023-09-18T07:48:18;100060.13;;;21.28;77.82
50368;BME280;36281;34.132;-118.018;2023-09-18T07:50:48;100057.97;;;21.30;78.33
50368;BME280;36281;34.132;-118.018;2023-09-18T07:53:19;100060.66;;;21.30;78.32
50368;BME280;36281;34.132;-118.018;2023-09-18T07:55:54;100057.97;;;21.30;78.47
50368;BME280;36281;34.132;-118.018;2023-09-18T07:58:24;100058.25;;;21.33;78.78
50368;BME280;36281;34.132;-118.018;2023-09-18T08:00:57;100062.00;;;21.32;79.20
50368;BME280;36281;34.132;-118.018;2023-09-18T08:03:27;100052.31;;;21.31;79.09
50368;BME280;36281;34.132;-118.018;2023-09-18T08:05:57;100050.44;;;21.32;79.25
50368;BME280;36281;34.132;-118.018;2023-09-18T08:08:26;100049.09;;;21.29;78.73
50368;BME280;36281;34.132;-118.018;2023-09-18T08:10:55;100044.50;;;21.30;78.79
50368;BME280;36281;34.132;-118.018;2023-09-18T08:13:24;100050.44;;;21.32;78.61
50368;BME280;36281;34.132;-118.018;2023-09-18T08:15:54;100049.88;;;21.30;78.53
50368;BME280;36281;34.132;-118.018;2023-09-18T08:18:24;100049.34;;;21.28;78.29
50368;BME280;36281;34.132;-118.018;2023-09-18T08:20:55;100053.94;;;21.27;78.35
50368;BME280;36281;34.132;-118.018;2023-09-18T08:23:26;100060.91;;;21.28;78.39
50368;BME280;36281;34.132;-118.018;2023-09-18T08:25:55;100063.63;;;21.28;78.29
50368;BME280;36281;34.132;-118.018;2023-09-18T08:28:26;100058.50;;;21.27;78.18
50368;BME280;36281;34.132;-118.018;2023-09-18T08:30:55;100056.91;;;21.26;78.79
50368;BME280;36281;34.132;-118.018;2023-09-18T08:33:25;100059.59;;;21.26;78.02
50368;BME280;36281;34.132;-118.018;2023-09-18T08:35:54;100059.59;;;21.26;77.92
50368;BME280;36281;34.132;-118.018;2023-09-18T08:38:23;100058.00;;;21.25;77.91
50368;BME280;36281;34.132;-118.018;2023-09-18T08:40:54;100054.75;;;21.23;78.27
50368;BME280;36281;34.132;-118.018;2023-09-18T08:43:24;100069.03;;;21.23;78.44
50368;BME280;36281;34.132;-118.018;2023-09-18T08:45:54;100059.09;;;21.24;78.71
50368;BME280;36281;34.132;-118.018;2023-09-18T08:48:26;100058.25;;;21.23;79.18
50368;BME280;36281;34.132;-118.018;2023-09-18T08:51:04;100059.88;;;21.24;79.21
50368;BME280;36281;34.132;-118.018;2023-09-18T08:53:34;100057.44;;;21.23;79.48
50368;BME280;36281;34.132;-118.018;2023-09-18T08:56:05;100054.75;;;21.23;79.34
50368;BME280;36281;34.132;-118.018;2023-09-18T08:58:37;100058.53;;;21.22;79.49
50368;BME280;36281;34.132;-118.018;2023-09-18T09:01:09;100056.94;;;21.21;79.38
50368;BME280;36281;34.132;-118.018;2023-09-18T09:03:43;100051.03;;;21.19;79.44
50368;BME280;36281;34.132;-118.018;2023-09-18T09:06:14;100051.56;;;21.15;79.24
50368;BME280;36281;34.132;-118.018;2023-09-18T09:08:43;100054.78;;;21.17;79.20
50368;BME280;36281;34.132;-118.018;2023-09-18T09:11:13;100045.91;;;21.17;79.44
50368;BME280;36281;34.132;-118.018;2023-09-18T09:13:42;100049.41;;;21.17;79.13
50368;BME280;36281;34.132;-118.018;2023-09-18T09:16:14;100053.19;;;21.16;78.54
50368;BME280;36281;34.132;-118.018;2023-09-18T09:18:51;100052.66;;;21.14;78.45
50368;BME280;36281;34.132;-118.018;2023-09-18T09:21:21;100052.69;;;21.09;78.48
50368;BME280;36281;34.132;-118.018;2023-09-18T09:23:51;100053.75;;;21.13;78.60
50368;BME280;36281;34.132;-118.018;2023-09-18T09:26:22;100054.28;;;21.15;79.39
50368;BME280;36281;34.132;-118.018;2023-09-18T09:28:51;100058.84;;;21.15;79.98
50368;BME280;36281;34.132;-118.018;2023-09-18T09:31:25;100046.72;;;21.12;80.64
50368;BME280;36281;34.132;-118.018;2023-09-18T09:33:59;100051.06;;;21.13;80.94
50368;BME280;36281;34.132;-118.018;2023-09-18T09:36:30;100058.06;;;21.14;81.26
50368;BME280;36281;34.132;-118.018;2023-09-18T09:39:02;100047.53;;;21.13;81.48
50368;BME280;36281;34.132;-118.018;2023-09-18T09:41:34;100046.72;;;21.12;81.37
50368;BME280;36281;34.132;-118.018;2023-09-18T09:44:05;100055.63;;;21.13;81.52
50368;BME280;36281;34.132;-118.018;2023-09-18T09:46:34;100053.75;;;21.13;81.61
50368;BME280;36281;34.132;-118.018;2023-09-18T09:49:05;100054.28;;;21.10;81.89
50368;BME280;36281;34.132;-118.018;2023-09-18T09:51:34;100053.22;;;21.11;81.81
50368;BME280;36281;34.132;-118.018;2023-09-18T09:54:04;100045.41;;;21.10;82.08
50368;BME280;36281;34.132;-118.018;2023-09-18T09:56:43;100044.34;;;21.06;82.08
50368;BME280;36281;34.132;-118.018;2023-09-18T09:59:14;100043.00;;;21.03;82.38
50368;BME280;36281;34.132;-118.018;2023-09-18T10:01:44;100044.88;;;21.03;82.68
50368;BME280;36281;34.132;-118.018;2023-09-18T10:04:17;100036.28;;;21.01;82.80
50368;BME280;36281;34.132;-118.018;2023-09-18T10:06:50;100032.81;;;21.00;82.92
50368;BME280;36281;34.132;-118.018;2023-09-18T10:09:21;100032.25;;;20.98;83.15
50368;BME280;36281;34.132;-118.018;2023-09-18T10:11:52;100036.03;;;20.97;83.17
50368;BME280;36281;34.132;-118.018;2023-09-18T10:14:30;100036.59;;;20.94;83.38
50368;BME280;36281;34.132;-118.018;2023-09-18T10:17:19;100028.28;;;20.90;83.61
50368;BME280;36281;34.132;-118.018;2023-09-18T10:19:57;100030.16;;;20.90;83.71
50368;BME280;36281;34.132;-118.018;2023-09-18T10:22:46;100028.28;;;20.90;84.31
50368;BME280;36281;34.132;-118.018;2023-09-18T10:25:21;100027.75;;;20.88;84.57
50368;BME280;36281;34.132;-118.018;2023-09-18T10:27:52;100026.91;;;20.88;84.92
50368;BME280;36281;34.132;-118.018;2023-09-18T10:30:22;100028.00;;;20.87;85.15
50368;BME280;36281;34.132;-118.018;2023-09-18T10:32:52;100029.09;;;20.86;85.36
50368;BME280;36281;34.132;-118.018;2023-09-18T10:35:24;100030.19;;;20.85;85.54
50368;BME280;36281;34.132;-118.018;2023-09-18T10:37:54;100019.94;;;20.82;85.76
50368;BME280;36281;34.132;-118.018;2023-09-18T10:40:25;100018.34;;;20.81;85.99
50368;BME280;36281;34.132;-118.018;2023-09-18T10:42:58;100017.00;;;20.78;86.06
50368;BME280;36281;34.132;-118.018;2023-09-18T10:45:30;100021.56;;;20.78;86.26
50368;BME280;36281;34.132;-118.018;2023-09-18T10:48:00;100018.38;;;20.76;86.54
50368;BME280;36281;34.132;-118.018;2023-09-18T10:50:31;100020.78;;;20.77;86.92
50368;BME280;36281;34.132;-118.018;2023-09-18T10:53:00;100021.06;;;20.76;86.60
50368;BME280;36281;34.132;-118.018;2023-09-18T10:55:29;100015.69;;;20.76;86.77
50368;BME280;36281;34.132;-118.018;2023-09-18T10:57:59;100023.22;;;20.74;86.77
50368;BME280;36281;34.132;-118.018;2023-09-18T11:00:30;100028.63;;;20.74;86.77
50368;BME280;36281;34.132;-118.018;2023-09-18T11:03:14;100020.00;;;20.72;87.07
50368;BME280;36281;34.132;-118.018;2023-09-18T11:06:02;100028.88;;;20.72;86.97
50368;BME280;36281;34.132;-118.018;2023-09-18T11:08:33;100021.06;;;20.71;86.97
50368;BME280;36281;34.132;-118.018;2023-09-18T11:11:07;100033.44;;;20.72;86.75
50368;BME280;36281;34.132;-118.018;2023-09-18T11:13:50;100023.78;;;20.71;86.80
50368;BME280;36281;34.132;-118.018;2023-09-18T11:16:35;100022.16;;;20.70;86.71
50368;BME280;36281;34.132;-118.018;2023-09-18T11:19:11;100027.81;;;20.68;86.29
50368;BME280;36281;34.132;-118.018;2023-09-18T11:21:44;100023.78;;;20.65;85.84
50368;BME280;36281;34.132;-118.018;2023-09-18T11:24:19;100021.91;;;20.66;85.74
50368;BME280;36281;34.132;-118.018;2023-09-18T11:26:49;100022.97;;;20.65;85.36
50368;BME280;36281;34.132;-118.018;2023-09-18T11:29:22;100020.28;;;20.65;85.61
50368;BME280;36281;34.132;-118.018;2023-09-18T11:31:52;100022.69;;;20.67;86.08
50368;BME280;36281;34.132;-118.018;2023-09-18T11:34:33;100030.78;;;20.67;86.65
50368;BME280;36281;34.132;-118.018;2023-09-18T11:37:19;100022.69;;;20.67;86.78
50368;BME280;36281;34.132;-118.018;2023-09-18T11:39:49;100018.13;;;20.67;86.70
50368;BME280;36281;34.132;-118.018;2023-09-18T11:42:19;100024.31;;;20.68;87.23
50368;BME280;36281;34.132;-118.018;2023-09-18T11:44:50;100024.31;;;20.68;87.46
50368;BME280;36281;34.132;-118.018;2023-09-18T11:47:24;100019.22;;;20.66;87.59
50368;BME280;36281;34.132;-118.018;2023-09-18T11:49:55;100017.31;;;20.67;87.63
50368;BME280;36281;34.132;-118.018;2023-09-18T11:52:29;100016.00;;;20.64;87.69
50368;BME280;36281;34.132;-118.018;2023-09-18T11:54:59;100018.94;;;20.62;87.63
50368;BME280;36281;34.132;-118.018;2023-09-18T11:57:29;100026.50;;;20.60;87.67
50368;BME280;36281;34.132;-118.018;2023-09-18T12:00:05;100026.22;;;20.62;87.57
50368;BME280;36281;34.132;-118.018;2023-09-18T12:02:40;100036.19;;;20.61;87.45
50368;BME280;36281;34.132;-118.018;2023-09-18T12:05:15;100032.69;;;20.61;87.35
50368;BME280;36281;34.132;-118.018;2023-09-18T12:07:47;100032.69;;;20.61;87.42
50368;BME280;36281;34.132;-118.018;2023-09-18T12:10:17;100035.91;;;20.58;87.02
50368;BME280;36281;34.132;-118.018;2023-09-18T12:12:47;100029.19;;;20.55;85.46
50368;BME280;36281;34.132;-118.018;2023-09-18T12:15:18;100035.66;;;20.54;83.82
50368;BME280;36281;34.132;-118.018;2023-09-18T12:17:55;100032.44;;;20.52;81.87
50368;BME280;36281;34.132;-118.018;2023-09-18T12:20:24;100037.28;;;20.50;81.04
50368;BME280;36281;34.132;-118.018;2023-09-18T12:22:55;100038.38;;;20.49;80.97
50368;BME280;36281;34.132;-118.018;2023-09-18T12:25:24;100045.63;;;20.49;80.89
50368;BME280;36281;34.132;-118.018;2023-09-18T12:27:53;100042.13;;;20.48;80.78
50368;BME280;36281;34.132;-118.018;2023-09-18T12:30:22;100048.03;;;20.50;80.47
50368;BME280;36281;34.132;-118.018;2023-09-18T12:32:52;100049.13;;;20.49;80.87
50368;BME280;36281;34.132;-118.018;2023-09-18T12:35:22;100048.03;;;20.45;81.27
50368;BME280;36281;34.132;-118.018;2023-09-18T12:37:51;100044.78;;;20.43;81.53
50368;BME280;36281;34.132;-118.018;2023-09-18T12:40:26;100043.44;;;20.46;82.35
50368;BME280;36281;34.132;-118.018;2023-09-18T12:42:56;100037.81;;;20.47;82.67